Leighton, Iowa
Current Conditions -  °F | °C
As of 9:35 PM on Sunday 23 Nov 2014 (Local Time) from KPEA Reporting Station
Drizzle Drizzle  
Wind Chill: 27°   Ceiling: 1200
Heat Index: 38°   Visibility: 7mi
Dew Point: 36°   Wind: 25mph
Humidity: 91%   Direction: 330°NNW
Pressure: 29.36"   Gusts: 38mph
Location:  41.34°N, 92.79°W
Report Text: KPEA 240335Z AUTO 33022G33KT 7SM DZ SCT002 BKN012 OVC034 03/02 A2936 RMK AO2 T00330020
Loading
Personal Weather Stations






























Interactive Weather Map New forecast layout! Learn more

10-Day Weather Forecast

Advertisements
Track Severe Weather on mobile